Time;durP1;ratioP1;P1;durP2;ratioP2;P2;SDS_P1;SDS_P2;PMS_P1;PMS_P2;Temp;Humidity;BMP_temperature;BMP_pressure;BME280_temperature;BME280_humidity;BME280_pressure;Samples;Min_cycle;Max_cycle;Signal;HPM_P1;HPM_P2
2022/07/05 00:02:02;;;;;;;17.07;11.90;;;18.30;96.60;;;;;;4853074;29;20247;-67
2022/07/05 00:04:27;;;;;;;14.43;11.80;;;18.30;96.60;;;;;;4852690;29;20211;-67
2022/07/05 00:09:37;;;;;;;17.17;12.13;;;18.30;96.60;;;;;;4879077;29;20194;-67
2022/07/05 00:12:04;;;;;;;14.27;11.10;;;18.30;96.70;;;;;;4865761;29;20197;-67
2022/07/05 00:14:30;;;;;;;14.43;11.23;;;18.30;96.70;;;;;;4873265;29;20288;-67
2022/07/05 00:16:55;;;;;;;14.03;10.90;;;18.20;96.50;;;;;;4879142;29;20287;-67
2022/07/05 00:19:21;;;;;;;13.10;10.63;;;18.20;96.60;;;;;;4840432;29;20292;-67
2022/07/05 00:21:47;;;;;;;15.80;11.43;;;18.20;96.50;;;;;;4860374;29;20199;-67
2022/07/05 00:24:12;;;;;;;14.40;11.93;;;18.30;96.70;;;;;;4872352;29;20203;-67
2022/07/05 00:26:38;;;;;;;15.20;12.23;;;18.30;96.80;;;;;;4871317;29;20251;-67
2022/07/05 00:29:04;;;;;;;14.47;11.80;;;18.30;96.70;;;;;;4877235;29;20239;-67
2022/07/05 00:31:30;;;;;;;13.87;12.33;;;18.30;96.70;;;;;;4866754;29;20278;-67
2022/07/05 00:33:55;;;;;;;31.97;13.50;;;18.30;96.80;;;;;;4858944;29;20272;-67
2022/07/05 00:36:21;;;;;;;13.90;11.17;;;18.40;96.80;;;;;;4863632;29;20202;-67
2022/07/05 00:38:47;;;;;;;17.30;12.40;;;18.40;96.80;;;;;;4857931;29;20249;-67
2022/07/05 00:41:12;;;;;;;13.17;10.43;;;18.30;96.80;;;;;;4864358;29;20212;-67
2022/07/05 00:43:55;;;;;;;20.77;10.70;;;18.30;96.80;;;;;;4866733;29;20214;-67
2022/07/05 00:46:21;;;;;;;9.03;8.13;;;18.30;96.70;;;;;;4884393;29;20195;-67
2022/07/05 00:48:46;;;;;;;13.67;10.10;;;18.20;96.50;;;;;;4857649;29;20207;-67
2022/07/05 00:51:12;;;;;;;12.37;9.50;;;18.20;96.60;;;;;;4863527;29;20208;-67
2022/07/05 00:53:38;;;;;;;10.43;9.33;;;18.30;96.60;;;;;;4863445;29;20343;-67
2022/07/05 00:56:05;;;;;;;8.87;8.07;;;18.30;96.70;;;;;;4880289;29;20275;-67
2022/07/05 00:58:32;;;;;;;11.50;9.03;;;18.30;96.70;;;;;;4862935;29;20201;-67
2022/07/05 01:01:01;;;;;;;9.50;8.60;;;18.30;96.70;;;;;;4881322;29;20192;-67
2022/07/05 01:03:27;;;;;;;11.30;8.53;;;18.30;96.60;;;;;;4884601;29;20230;-67
2022/07/05 01:05:54;;;;;;;9.53;7.90;;;18.30;96.70;;;;;;4875545;29;20205;-67
2022/07/05 01:08:22;;;;;;;8.07;7.30;;;18.30;96.70;;;;;;4876839;29;20247;-67
2022/07/05 01:10:48;;;;;;;8.67;7.87;;;18.20;96.40;;;;;;4880205;29;20200;-67
2022/07/05 01:13:14;;;;;;;10.30;8.37;;;18.20;96.30;;;;;;4841771;29;20221;-67
2022/07/05 01:15:41;;;;;;;10.77;9.63;;;18.20;96.60;;;;;;4844193;29;20200;-67
2022/07/05 01:18:08;;;;;;;12.70;9.83;;;18.30;96.60;;;;;;4884405;29;20202;-67
2022/07/05 01:20:34;;;;;;;11.93;9.63;;;18.30;96.70;;;;;;4857380;29;20200;-67
2022/07/05 01:23:02;;;;;;;11.00;9.27;;;18.30;96.60;;;;;;4866842;29;20204;-67
2022/07/05 01:25:29;;;;;;;10.80;8.87;;;18.20;96.40;;;;;;4869898;29;20203;-67
2022/07/05 01:27:56;;;;;;;12.27;10.17;;;18.20;96.60;;;;;;4881424;29;20247;-67
2022/07/05 01:30:23;;;;;;;13.90;10.60;;;18.30;96.70;;;;;;4900861;29;20205;-67
2022/07/05 01:32:49;;;;;;;18.33;11.33;;;18.30;96.80;;;;;;4872926;29;20316;-67
2022/07/05 01:35:23;;;;;;;10.93;9.83;;;18.30;96.70;;;;;;4879385;29;20287;-67
2022/07/05 01:37:50;;;;;;;12.47;10.83;;;18.30;96.60;;;;;;4886790;29;21117;-67
2022/07/05 01:40:17;;;;;;;12.23;11.03;;;18.30;96.70;;;;;;4885206;29;20226;-67
2022/07/05 01:42:43;;;;;;;11.27;10.07;;;18.20;96.50;;;;;;4862542;29;20311;-67
2022/07/05 01:45:09;;;;;;;10.93;9.83;;;18.20;96.50;;;;;;4851500;29;20290;-67
2022/07/05 01:47:38;;;;;;;12.13;10.67;;;18.20;96.20;;;;;;4867359;29;20233;-67
2022/07/05 01:50:06;;;;;;;12.03;10.87;;;18.10;96.30;;;;;;4908434;29;20195;-67
2022/07/05 01:52:33;;;;;;;11.97;10.67;;;18.20;96.30;;;;;;4900299;29;20299;-67
2022/07/05 01:55:00;;;;;;;15.13;11.67;;;18.10;96.30;;;;;;4889977;29;20245;-67
2022/07/05 01:57:27;;;;;;;14.27;11.20;;;18.10;96.40;;;;;;4878946;29;20302;-67
2022/07/05 01:59:53;;;;;;;12.63;11.30;;;18.10;96.40;;;;;;4877178;29;20198;-67
2022/07/05 02:02:18;;;;;;;16.10;12.73;;;18.10;96.40;;;;;;4855391;29;20196;-67
2022/07/05 02:04:44;;;;;;;18.90;13.43;;;18.10;96.50;;;;;;4869277;29;20208;-67
2022/07/05 02:07:10;;;;;;;16.13;13.63;;;18.10;96.60;;;;;;4861354;29;20247;-67
2022/07/05 02:09:36;;;;;;;20.50;14.50;;;18.20;96.80;;;;;;4882605;29;20206;-67
2022/07/05 02:12:04;;;;;;;19.13;15.27;;;18.20;96.90;;;;;;4862893;29;20192;-67
2022/07/05 02:14:29;;;;;;;15.57;13.83;;;18.20;96.90;;;;;;4866178;29;20298;-67
2022/07/05 02:16:55;;;;;;;18.73;14.13;;;18.20;97.00;;;;;;4881726;29;20295;-67
2022/07/05 02:19:21;;;;;;;26.10;14.37;;;18.20;97.00;;;;;;4858875;29;20195;-67
2022/07/05 02:21:47;;;;;;;19.00;14.63;;;18.20;97.00;;;;;;4849026;29;20200;-67
2022/07/05 02:24:12;;;;;;;19.17;13.93;;;18.20;97.00;;;;;;4881602;29;20199;-67
2022/07/05 02:26:38;;;;;;;46.93;14.40;;;18.20;97.00;;;;;;4859592;29;20235;-67
2022/07/05 02:29:04;;;;;;;46.27;16.77;;;18.10;97.00;;;;;;4860312;29;20323;-67
2022/07/05 02:31:30;;;;;;;16.77;13.97;;;18.10;97.00;;;;;;4883696;29;20192;-67
2022/07/05 02:33:56;;;;;;;19.53;13.60;;;18.20;97.10;;;;;;4868336;29;20219;-67
2022/07/05 02:36:22;;;;;;;16.97;13.20;;;18.20;97.10;;;;;;4873947;29;20192;-67
2022/07/05 02:38:48;;;;;;;20.07;12.53;;;18.20;97.10;;;;;;4896291;29;20272;-67
2022/07/05 02:41:14;;;;;;;14.70;12.80;;;18.20;97.10;;;;;;4858205;29;20197;-67
2022/07/05 02:43:39;;;;;;;18.33;12.27;;;18.20;97.10;;;;;;4872246;29;20196;-67
2022/07/05 02:46:07;;;;;;;15.33;12.50;;;18.20;97.00;;;;;;4869435;29;20206;-67
2022/07/05 02:48:34;;;;;;;14.00;12.10;;;18.20;97.10;;;;;;4872806;29;20210;-67
2022/07/05 02:51:01;;;;;;;21.87;15.00;;;18.30;97.20;;;;;;4866719;29;20341;-67
2022/07/05 02:53:27;;;;;;;19.07;12.93;;;18.30;97.20;;;;;;4848279;29;20225;-66
2022/07/05 02:55:53;;;;;;;16.23;10.20;;;18.30;97.20;;;;;;4875461;29;20197;-66
2022/07/05 02:58:19;;;;;;;11.87;9.90;;;18.10;96.90;;;;;;4865586;29;20237;-66
2022/07/05 03:00:47;;;;;;;12.47;10.67;;;18.10;97.00;;;;;;4864804;29;20254;-69
2022/07/05 03:03:13;;;;;;;14.23;12.07;;;18.00;96.80;;;;;;4878926;29;20289;-69
2022/07/05 03:05:39;;;;;;;14.70;12.70;;;18.10;97.00;;;;;;4875245;29;20278;-70
2022/07/05 03:08:05;;;;;;;14.60;11.27;;;18.10;97.00;;;;;;4865508;29;20275;-68
2022/07/05 03:10:31;;;;;;;13.37;10.93;;;18.10;97.00;;;;;;4900739;29;20199;-71
2022/07/05 03:12:56;;;;;;;12.13;10.63;;;18.10;97.00;;;;;;4895477;29;20221;-67
2022/07/05 03:15:22;;;;;;;11.63;10.53;;;18.10;97.00;;;;;;4865031;29;20202;-67
2022/07/05 03:17:48;;;;;;;13.73;11.70;;;18.00;96.90;;;;;;4860651;29;20199;-67
2022/07/05 03:20:13;;;;;;;15.90;12.13;;;18.00;97.00;;;;;;4864626;29;20282;-67
2022/07/05 03:22:39;;;;;;;14.87;10.93;;;18.10;97.00;;;;;;4865117;29;20204;-67
2022/07/05 03:25:06;;;;;;;15.33;11.63;;;18.20;97.10;;;;;;4861355;29;20221;-67
2022/07/05 03:27:32;;;;;;;14.10;11.23;;;18.10;97.00;;;;;;4854759;29;20247;-67
2022/07/05 03:29:57;;;;;;;13.20;11.03;;;18.20;97.00;;;;;;4879213;29;20188;-67
2022/07/05 03:32:23;;;;;;;13.73;11.53;;;18.20;97.10;;;;;;4856337;29;20200;-68
2022/07/05 03:34:49;;;;;;;12.27;11.03;;;18.20;97.10;;;;;;4856837;29;20251;-67
2022/07/05 03:37:14;;;;;;;11.20;9.97;;;18.20;97.10;;;;;;4858976;29;20201;-69
2022/07/05 03:39:40;;;;;;;12.27;11.00;;;18.20;97.00;;;;;;4869771;29;20200;-69
2022/07/05 03:42:06;;;;;;;10.80;9.70;;;18.20;97.00;;;;;;4861527;29;20196;-69
2022/07/05 03:44:32;;;;;;;10.30;9.17;;;18.20;97.10;;;;;;4863894;29;20208;-68
2022/07/05 03:46:59;;;;;;;11.07;9.23;;;18.20;97.00;;;;;;4894049;29;20200;-69
2022/07/05 03:49:24;;;;;;;9.97;9.00;;;18.20;97.10;;;;;;4867617;29;20204;-68
2022/07/05 03:51:50;;;;;;;16.40;9.77;;;18.20;97.00;;;;;;4848521;29;20204;-68
2022/07/05 03:54:16;;;;;;;12.23;10.43;;;18.20;97.10;;;;;;4862672;29;20228;-68
2022/07/05 03:56:41;;;;;;;17.20;11.50;;;18.20;97.10;;;;;;4874108;29;20206;-69
2022/07/05 03:59:07;;;;;;;11.30;10.03;;;18.20;97.10;;;;;;4857200;29;20188;-69
2022/07/05 04:01:33;;;;;;;11.37;10.00;;;18.20;97.10;;;;;;4864628;29;20196;-69
2022/07/05 04:03:58;;;;;;;11.30;10.17;;;18.20;97.10;;;;;;4856239;29;20220;-69
2022/07/05 04:06:24;;;;;;;11.93;10.17;;;18.20;97.10;;;;;;4866868;29;20208;-69
2022/07/05 04:08:50;;;;;;;12.53;10.10;;;18.20;97.10;;;;;;4874897;29;20206;-69
2022/07/05 04:11:16;;;;;;;14.03;9.93;;;18.20;97.00;;;;;;4853468;29;20220;-69
2022/07/05 04:13:43;;;;;;;11.60;10.30;;;18.20;97.10;;;;;;4847512;29;20251;-68
2022/07/05 04:16:09;;;;;;;11.20;9.97;;;18.30;97.10;;;;;;4876827;29;20214;-67
2022/07/05 04:18:35;;;;;;;13.80;10.33;;;18.20;97.10;;;;;;4864340;29;20192;-68
2022/07/05 04:21:02;;;;;;;23.93;11.63;;;18.20;97.00;;;;;;4878502;29;20271;-67
2022/07/05 04:23:27;;;;;;;11.67;10.47;;;18.20;97.10;;;;;;4861478;29;20196;-67
2022/07/05 04:25:54;;;;;;;13.23;10.43;;;18.20;97.00;;;;;;4862714;29;20208;-68
2022/07/05 04:28:19;;;;;;;12.80;11.43;;;18.30;97.10;;;;;;4866601;29;20243;-68
2022/07/05 04:30:45;;;;;;;11.17;10.07;;;18.20;97.10;;;;;;4875020;29;20225;-72
2022/07/05 04:33:11;;;;;;;11.50;10.20;;;18.20;97.10;;;;;;4848655;29;20247;-69
2022/07/05 04:35:36;;;;;;;10.87;9.83;;;18.20;97.10;;;;;;4867626;29;20207;-69
2022/07/05 04:38:02;;;;;;;15.73;10.27;;;18.30;97.10;;;;;;4860425;29;20204;-68
2022/07/05 04:40:28;;;;;;;13.50;10.63;;;18.30;97.10;;;;;;4874088;29;20428;-68
2022/07/05 04:42:53;;;;;;;13.23;11.83;;;18.30;97.10;;;;;;4871458;29;20209;-67
2022/07/05 04:45:19;;;;;;;14.87;12.83;;;18.30;97.10;;;;;;4873152;29;20204;-67
2022/07/05 04:47:45;;;;;;;16.27;12.47;;;18.30;97.20;;;;;;4869236;29;20200;-67
2022/07/05 04:50:10;;;;;;;15.23;13.70;;;18.30;97.20;;;;;;4866021;29;20213;-67
2022/07/05 04:52:36;;;;;;;15.73;13.53;;;18.40;97.20;;;;;;4867377;29;20203;-68
2022/07/05 04:55:03;;;;;;;16.80;14.57;;;18.50;97.30;;;;;;4872527;29;20203;-67
2022/07/05 04:57:40;;;;;;;15.57;13.93;;;18.50;97.30;;;;;;4872732;29;20207;-67
2022/07/05 05:00:07;;;;;;;18.10;14.90;;;18.50;97.30;;;;;;4863947;29;20197;-67
2022/07/05 05:02:33;;;;;;;16.27;13.83;;;18.60;97.30;;;;;;4874900;29;20215;-67
2022/07/05 05:04:59;;;;;;;17.07;14.70;;;18.60;97.30;;;;;;4869519;29;20501;-67
2022/07/05 05:07:24;;;;;;;15.63;14.13;;;18.60;97.30;;;;;;4863618;29;20202;-68
2022/07/05 05:09:50;;;;;;;15.50;13.70;;;18.60;97.30;;;;;;4838763;29;20197;-67
2022/07/05 05:12:15;;;;;;;15.93;14.07;;;18.60;97.20;;;;;;4855246;29;20219;-67
2022/07/05 05:14:41;;;;;;;14.10;12.73;;;18.60;97.20;;;;;;4852954;29;20224;-67
2022/07/05 05:17:07;;;;;;;17.50;15.27;;;18.70;97.30;;;;;;4863210;29;20192;-67
2022/07/05 05:19:32;;;;;;;19.53;16.57;;;18.70;97.30;;;;;;4862242;29;20256;-67
2022/07/05 05:21:58;;;;;;;18.40;15.93;;;18.60;97.20;;;;;;4857522;29;20200;-67
2022/07/05 05:24:24;;;;;;;19.53;16.23;;;18.70;97.20;;;;;;4863406;29;20204;-67
2022/07/05 05:26:50;;;;;;;16.00;14.40;;;18.70;97.20;;;;;;4864225;29;20207;-67
2022/07/05 05:29:17;;;;;;;19.07;16.23;;;18.70;97.30;;;;;;4871701;29;20204;-68
2022/07/05 05:31:42;;;;;;;18.53;16.73;;;18.80;97.30;;;;;;4887988;29;20204;-63
2022/07/05 05:34:08;;;;;;;16.40;14.87;;;18.80;97.40;;;;;;4858813;29;20321;-63
2022/07/05 05:36:34;;;;;;;17.63;14.57;;;18.80;97.30;;;;;;4873788;29;20235;-63
2022/07/05 05:39:00;;;;;;;13.73;12.40;;;18.80;97.30;;;;;;4877652;29;20260;-63
2022/07/05 05:41:26;;;;;;;11.13;10.13;;;18.70;97.10;;;;;;4878711;29;20191;-63
2022/07/05 05:43:52;;;;;;;12.43;10.60;;;18.60;96.60;;;;;;4847552;29;20188;-63
2022/07/05 05:46:17;;;;;;;11.23;10.07;;;18.50;96.20;;;;;;4837858;29;20197;-62
2022/07/05 05:48:43;;;;;;;12.60;11.30;;;18.60;96.20;;;;;;4856243;29;20226;-63
2022/07/05 05:51:09;;;;;;;13.47;12.17;;;18.60;96.50;;;;;;4848867;29;20212;-63
2022/07/05 05:53:34;;;;;;;12.83;11.63;;;18.70;96.70;;;;;;4856783;29;20226;-63
2022/07/05 05:56:00;;;;;;;12.30;11.10;;;18.70;96.80;;;;;;4845910;29;20184;-63
2022/07/05 05:58:26;;;;;;;11.67;10.57;;;18.70;96.90;;;;;;4868065;29;20296;-63
2022/07/05 06:00:52;;;;;;;10.97;9.97;;;18.80;96.80;;;;;;4855076;29;20267;-63
2022/07/05 06:03:19;;;;;;;10.93;9.90;;;18.80;96.70;;;;;;4873036;29;20200;-62
2022/07/05 06:05:45;;;;;;;11.60;10.50;;;18.70;96.30;;;;;;4866915;29;20188;-62
2022/07/05 06:08:11;;;;;;;11.83;10.73;;;18.70;96.30;;;;;;4869344;29;20245;-62
2022/07/05 06:10:37;;;;;;;12.27;11.17;;;18.70;96.40;;;;;;4864260;29;20228;-63
2022/07/05 06:13:05;;;;;;;13.97;11.80;;;18.80;96.50;;;;;;4874381;29;20267;-62
2022/07/05 06:15:31;;;;;;;13.73;12.43;;;18.80;96.60;;;;;;4895688;29;20181;-62
2022/07/05 06:17:57;;;;;;;12.93;11.63;;;18.80;96.70;;;;;;4865083;29;20201;-62
2022/07/05 06:20:29;;;;;;;13.70;12.40;;;18.90;96.70;;;;;;4863931;29;20192;-62
2022/07/05 06:22:55;;;;;;;16.40;12.47;;;18.90;96.60;;;;;;4863587;29;20222;-62
2022/07/05 06:25:21;;;;;;;14.57;12.80;;;18.90;96.70;;;;;;4865258;29;20195;-62
2022/07/05 06:27:49;;;;;;;14.50;13.10;;;19.00;96.80;;;;;;4868220;29;20240;-63
2022/07/05 06:30:18;;;;;;;16.50;13.63;;;19.00;96.90;;;;;;4879677;29;20227;-63
2022/07/05 06:32:45;;;;;;;15.07;13.57;;;19.10;97.00;;;;;;4875713;29;20267;-62
2022/07/05 06:35:12;;;;;;;14.50;13.10;;;19.20;96.90;;;;;;4877386;29;20283;-63
2022/07/05 06:37:46;;;;;;;13.43;12.13;;;19.10;96.80;;;;;;4853026;29;20215;-62
2022/07/05 06:40:14;;;;;;;14.33;12.93;;;19.10;96.50;;;;;;4881739;29;20198;-63
2022/07/05 06:42:40;;;;;;;14.70;13.20;;;19.10;96.70;;;;;;4893894;29;20221;-62
2022/07/05 06:45:06;;;;;;;13.50;12.10;;;19.20;96.60;;;;;;4847456;29;20193;-62
2022/07/05 06:47:33;;;;;;;14.50;13.00;;;19.00;95.90;;;;;;4867095;29;20188;-63
2022/07/05 06:49:59;;;;;;;15.40;13.40;;;19.10;96.20;;;;;;4895648;29;20185;-63
2022/07/05 06:52:25;;;;;;;13.73;12.43;;;19.10;96.40;;;;;;4892979;29;20200;-63
2022/07/05 06:54:50;;;;;;;16.30;14.70;;;19.20;96.40;;;;;;4863583;29;20209;-63
2022/07/05 06:57:23;;;;;;;16.80;15.00;;;19.20;96.70;;;;;;4881389;29;20201;-63
2022/07/05 06:59:49;;;;;;;18.47;16.07;;;19.30;96.80;;;;;;4864178;29;20196;-63
2022/07/05 07:02:15;;;;;;;20.50;17.57;;;19.30;96.90;;;;;;4872432;29;20190;-63
2022/07/05 07:04:41;;;;;;;21.23;18.70;;;19.50;97.10;;;;;;4878002;29;20188;-63
2022/07/05 07:09:17;;;;;;;21.17;17.13;;;19.60;97.20;;;;;;4877382;29;20189;-63
2022/07/05 07:09:56;;;;;;;17.47;15.67;;;19.60;97.10;;;;;;4879629;29;20197;-63
2022/07/05 07:12:22;;;;;;;16.87;15.17;;;19.60;97.00;;;;;;4878679;29;20208;-62
2022/07/05 07:14:48;;;;;;;16.20;14.50;;;19.60;96.90;;;;;;4881164;29;20244;-63
2022/07/05 07:17:13;;;;;;;13.20;12.00;;;19.70;97.00;;;;;;4872022;29;20224;-63
2022/07/05 07:19:39;;;;;;;14.43;13.13;;;19.70;96.70;;;;;;4866341;29;20187;-63
2022/07/05 07:22:04;;;;;;;12.33;10.60;;;19.70;96.60;;;;;;4848292;29;20299;-63
2022/07/05 07:24:30;;;;;;;11.80;10.60;;;19.70;96.30;;;;;;4848719;29;20211;-63
2022/07/05 07:27:06;;;;;;;11.17;10.17;;;19.70;96.30;;;;;;4863231;29;20203;-63
2022/07/05 07:29:32;;;;;;;12.23;11.07;;;19.80;96.30;;;;;;4856562;29;20295;-63
2022/07/05 07:31:59;;;;;;;11.40;10.27;;;19.80;96.60;;;;;;4881845;29;20200;-63
2022/07/05 07:34:26;;;;;;;8.93;8.07;;;19.80;96.50;;;;;;4883899;29;20220;-63
2022/07/05 07:36:53;;;;;;;11.17;7.80;;;19.80;95.80;;;;;;4879646;29;20194;-63
2022/07/05 07:39:19;;;;;;;9.83;8.83;;;19.80;95.20;;;;;;4865332;29;20263;-63
2022/07/05 07:41:45;;;;;;;8.63;7.73;;;19.80;95.20;;;;;;4862845;29;20295;-62
2022/07/05 07:44:10;;;;;;;8.73;7.93;;;19.80;95.30;;;;;;4864131;29;20287;-62
2022/07/05 07:46:39;;;;;;;9.00;8.17;;;19.90;95.40;;;;;;4851519;29;20228;-63
2022/07/05 07:49:05;;;;;;;8.43;7.53;;;19.90;95.80;;;;;;4870568;29;20200;-62
2022/07/05 07:51:30;;;;;;;9.47;7.33;;;19.80;94.90;;;;;;4882262;29;20246;-62
2022/07/05 07:53:56;;;;;;;8.07;6.70;;;19.90;94.60;;;;;;4881288;29;20219;-62
2022/07/05 07:56:22;;;;;;;7.83;7.10;;;19.80;93.80;;;;;;4877753;29;20213;-62
2022/07/05 07:58:47;;;;;;;8.20;7.40;;;19.80;94.60;;;;;;4859597;29;20188;-63
2022/07/05 08:01:14;;;;;;;6.80;6.10;;;19.90;95.30;;;;;;4893367;29;20185;-62
2022/07/05 08:03:40;;;;;;;7.80;6.67;;;19.80;94.30;;;;;;4844547;29;20208;-62
2022/07/05 08:06:07;;;;;;;7.13;6.43;;;19.90;94.40;;;;;;4860482;29;20212;-62
2022/07/05 08:08:34;;;;;;;7.87;7.17;;;19.90;94.80;;;;;;4864897;29;20200;-62
2022/07/05 08:11:00;;;;;;;8.07;6.67;;;20.00;95.50;;;;;;4845039;29;20195;-62
2022/07/05 08:13:26;;;;;;;7.83;7.13;;;20.00;95.00;;;;;;4864349;29;20327;-63
2022/07/05 08:15:52;;;;;;;6.60;6.00;;;20.00;94.80;;;;;;4853331;29;20259;-62
2022/07/05 08:23:46;;;;;;;5.50;5.00;;;20.10;93.50;;;;;;4895089;29;20336;-62
2022/07/05 08:26:11;;;;;;;6.43;5.83;;;20.10;92.60;;;;;;4866157;29;20279;-63
2022/07/05 08:28:37;;;;;;;6.40;5.80;;;20.20;93.60;;;;;;4841921;29;20248;-62
2022/07/05 08:31:03;;;;;;;5.40;4.97;;;20.10;94.10;;;;;;4842743;29;20192;-62
2022/07/05 08:33:28;;;;;;;4.57;4.17;;;20.20;93.10;;;;;;4834055;29;20243;-63
2022/07/05 08:35:54;;;;;;;3.73;3.20;;;20.20;91.40;;;;;;4836100;29;20191;-62
2022/07/05 08:38:20;;;;;;;3.60;3.30;;;20.30;90.40;;;;;;4835333;29;20196;-62
2022/07/05 08:40:50;;;;;;;6.77;4.37;;;20.30;91.00;;;;;;4881998;29;20274;-62
2022/07/05 08:43:16;;;;;;;5.43;4.93;;;20.30;93.90;;;;;;4875398;29;20188;-62
2022/07/05 08:45:45;;;;;;;4.80;4.23;;;20.40;93.20;;;;;;4857509;29;20211;-62
2022/07/05 08:48:14;;;;;;;2.20;2.00;;;20.50;92.70;;;;;;4881392;29;20200;-63
2022/07/05 08:50:40;;;;;;;2.43;2.03;;;20.50;88.40;;;;;;4852988;29;20201;-62
2022/07/05 08:53:06;;;;;;;1.50;1.37;;;20.50;90.80;;;;;;4863207;29;20268;-62
2022/07/05 08:55:32;;;;;;;3.17;2.20;;;20.50;89.80;;;;;;4871736;29;20195;-62
2022/07/05 08:57:59;;;;;;;2.30;2.10;;;20.50;92.70;;;;;;4878392;29;20293;-62
2022/07/05 09:00:24;;;;;;;2.00;1.90;;;20.70;94.40;;;;;;4862639;29;20275;-62
2022/07/05 09:02:51;;;;;;;2.50;2.30;;;20.80;94.20;;;;;;4869203;29;20294;-62
2022/07/05 09:05:20;;;;;;;2.80;2.60;;;20.70;90.90;;;;;;4890645;29;20192;-62
2022/07/05 09:08:01;;;;;;;3.97;3.40;;;20.80;91.00;;;;;;4869695;29;20196;-62
2022/07/05 09:10:28;;;;;;;3.83;3.53;;;20.80;92.40;;;;;;4873733;29;20234;-62
2022/07/05 09:12:55;;;;;;;4.40;3.83;;;20.80;92.00;;;;;;4871628;29;20188;-62
2022/07/05 09:15:21;;;;;;;6.37;3.23;;;20.80;93.00;;;;;;4862120;29;20192;-62
2022/07/05 09:17:47;;;;;;;4.27;3.60;;;20.80;92.50;;;;;;4875881;29;20198;-62
2022/07/05 09:20:19;;;;;;;2.10;1.90;;;20.90;92.20;;;;;;4865035;29;20195;-62
2022/07/05 09:22:55;;;;;;;4.63;1.87;;;20.90;89.80;;;;;;4880072;29;20285;-62
2022/07/05 09:25:31;;;;;;;1.70;1.60;;;21.00;90.70;;;;;;4885228;29;20187;-62
2022/07/05 09:27:59;;;;;;;2.50;2.30;;;21.00;88.60;;;;;;4861388;29;20310;-62
2022/07/05 09:30:30;;;;;;;4.03;2.10;;;21.00;88.80;;;;;;4873660;29;20200;-62
2022/07/05 09:33:10;;;;;;;4.13;1.97;;;21.00;85.90;;;;;;4879372;29;20299;-62
2022/07/05 09:35:50;;;;;;;5.23;2.10;;;20.90;90.40;;;;;;4873020;29;20192;-62
2022/07/05 09:38:23;;;;;;;2.20;2.00;;;20.90;92.10;;;;;;4895852;29;20183;-62
2022/07/05 09:40:58;;;;;;;3.17;1.80;;;20.80;91.30;;;;;;4895387;29;20195;-62
2022/07/05 09:43:26;;;;;;;1.90;1.70;;;20.80;91.00;;;;;;4896156;29;20191;-62
2022/07/05 09:46:00;;;;;;;2.10;1.50;;;20.70;90.70;;;;;;4876908;29;20198;-62
2022/07/05 09:48:32;;;;;;;2.17;1.30;;;20.70;88.20;;;;;;4882178;29;20215;-62
2022/07/05 09:51:18;;;;;;;1.23;1.00;;;20.70;89.70;;;;;;4880337;29;20255;-62
2022/07/05 09:53:52;;;;;;;1.17;1.07;;;20.70;88.50;;;;;;4886507;29;20216;-62
2022/07/05 09:56:18;;;;;;;1.10;0.90;;;20.60;87.90;;;;;;4885579;29;20192;-62
2022/07/05 09:58:45;;;;;;;0.80;0.80;;;20.80;84.80;;;;;;4884624;29;20279;-62
2022/07/05 10:01:31;;;;;;;2.13;0.93;;;20.70;85.30;;;;;;4872728;29;20184;-62
2022/07/05 10:04:02;;;;;;;2.73;1.10;;;20.60;84.50;;;;;;4862913;29;20201;-62
2022/07/05 10:06:29;;;;;;;1.57;0.87;;;20.60;88.30;;;;;;4872102;29;20192;-62
2022/07/05 10:08:55;;;;;;;0.80;0.80;;;20.60;87.20;;;;;;4862916;29;20208;-62
2022/07/05 10:11:22;;;;;;;0.67;0.67;;;20.70;86.00;;;;;;4850866;29;20200;-62
2022/07/05 10:13:49;;;;;;;0.63;0.63;;;20.80;80.20;;;;;;4898148;29;20210;-62
2022/07/05 10:16:19;;;;;;;0.50;0.50;;;20.90;82.90;;;;;;4868567;29;20196;-62
2022/07/05 10:18:46;;;;;;;0.83;0.80;;;20.90;81.20;;;;;;4866899;29;20207;-62
2022/07/05 10:21:14;;;;;;;0.97;0.83;;;20.80;83.30;;;;;;4861326;29;20291;-62
2022/07/05 10:23:44;;;;;;;2.50;0.60;;;21.00;85.40;;;;;;4855315;29;20218;-62
2022/07/05 10:26:12;;;;;;;0.60;0.60;;;21.20;85.00;;;;;;4866525;29;20199;-62
2022/07/05 10:28:45;;;;;;;0.73;0.50;;;21.50;79.80;;;;;;4879457;29;20342;-62
2022/07/05 10:31:14;;;;;;;0.80;0.63;;;21.80;83.00;;;;;;4881643;29;20202;-62
2022/07/05 10:33:40;;;;;;;0.73;0.60;;;21.90;81.60;;;;;;4877414;29;20216;-62
2022/07/05 10:36:10;;;;;;;0.40;0.40;;;22.00;84.00;;;;;;4877785;29;20196;-62
2022/07/05 10:38:38;;;;;;;2.60;0.70;;;22.10;76.80;;;;;;4874474;29;20196;-62
2022/07/05 10:41:08;;;;;;;0.60;0.53;;;22.10;79.20;;;;;;4879917;29;20244;-62
2022/07/05 10:43:34;;;;;;;0.43;0.37;;;22.10;77.40;;;;;;4865552;29;20223;-62
2022/07/05 10:46:00;;;;;;;0.47;0.47;;;22.20;77.70;;;;;;4869392;29;20188;-62
2022/07/05 10:48:27;;;;;;;0.50;0.50;;;22.30;78.30;;;;;;4880015;29;20202;-62
2022/07/05 10:50:58;;;;;;;0.43;0.43;;;22.20;80.60;;;;;;4877874;29;20199;-62
2022/07/05 10:53:29;;;;;;;0.50;0.50;;;22.30;76.70;;;;;;4876110;29;20247;-62
2022/07/05 10:56:04;;;;;;;0.67;0.60;;;22.50;74.70;;;;;;4866286;29;20192;-62
2022/07/05 10:58:33;;;;;;;1.20;0.73;;;22.50;77.50;;;;;;4867314;29;20216;-62
2022/07/05 11:01:17;;;;;;;0.47;0.47;;;22.50;73.20;;;;;;4875731;29;20273;-62
2022/07/05 11:04:11;;;;;;;0.57;0.50;;;22.50;80.10;;;;;;4873172;29;20212;-62
2022/07/05 11:06:43;;;;;;;0.40;0.40;;;22.40;71.50;;;;;;4880422;29;20192;-62
2022/07/05 11:09:11;;;;;;;0.97;0.50;;;22.50;76.50;;;;;;4874104;29;20188;-62
2022/07/05 11:11:37;;;;;;;2.20;0.57;;;22.50;77.00;;;;;;4873311;29;20204;-62
2022/07/05 11:14:25;;;;;;;0.50;0.40;;;22.80;73.90;;;;;;4880034;29;20208;-63
2022/07/05 11:17:09;;;;;;;0.93;0.60;;;22.80;72.70;;;;;;4856241;29;20192;-63
2022/07/05 11:19:55;;;;;;;0.63;0.50;;;22.70;77.50;;;;;;4871820;29;20184;-63
2022/07/05 11:22:21;;;;;;;1.00;0.50;;;22.60;74.90;;;;;;4893017;29;20188;-63
2022/07/05 11:24:47;;;;;;;4.30;0.70;;;22.80;75.60;;;;;;4865302;29;20253;-64
2022/07/05 11:27:12;;;;;;;0.40;0.40;;;22.70;77.50;;;;;;4845034;29;20251;-63
2022/07/05 11:29:44;;;;;;;0.47;0.47;;;22.80;74.00;;;;;;4848332;29;20193;-63
2022/07/05 11:32:34;;;;;;;1.03;0.50;;;22.80;73.70;;;;;;4900263;29;20191;-63
2022/07/05 11:35:14;;;;;;;2.30;0.70;;;22.80;71.10;;;;;;4877823;29;20220;-63
2022/07/05 11:38:05;;;;;;;1.17;0.90;;;22.70;72.10;;;;;;4878533;29;20188;-63
2022/07/05 11:40:37;;;;;;;4.00;2.33;;;22.60;72.90;;;;;;4859142;29;20219;-63
2022/07/05 11:43:03;;;;;;;12.37;5.67;;;22.50;72.50;;;;;;4862919;29;20192;-63
2022/07/05 11:45:30;;;;;;;10.67;4.23;;;22.50;70.60;;;;;;4890088;29;20180;-63
2022/07/05 11:47:57;;;;;;;5.93;1.93;;;22.60;70.00;;;;;;4872576;29;20191;-62
2022/07/05 11:50:31;;;;;;;2.77;1.10;;;22.80;70.70;;;;;;4875713;29;20192;-62
2022/07/05 11:52:57;;;;;;;4.17;1.50;;;22.80;73.00;;;;;;4869148;29;20191;-63
2022/07/05 11:55:26;;;;;;;0.83;0.63;;;22.80;73.60;;;;;;4877001;29;20288;-63
2022/07/05 11:57:53;;;;;;;1.20;0.67;;;22.90;71.40;;;;;;4872374;29;20215;-62
2022/07/05 12:00:26;;;;;;;5.27;2.77;;;23.20;66.00;;;;;;4863809;29;20192;-62
2022/07/05 12:02:52;;;;;;;3.07;1.27;;;23.30;69.40;;;;;;4873931;29;20237;-62
2022/07/05 12:05:18;;;;;;;2.17;1.27;;;23.50;66.30;;;;;;4852083;29;20204;-62
2022/07/05 12:07:49;;;;;;;4.10;2.10;;;23.70;64.30;;;;;;4852680;29;20188;-63
2022/07/05 12:13:09;;;;;;;1.43;0.87;;;24.30;62.70;;;;;;4863501;29;20203;-62
2022/07/05 12:15:36;;;;;;;2.00;1.27;;;24.80;61.40;;;;;;4890414;29;20192;-62
2022/07/05 12:18:04;;;;;;;1.70;1.33;;;25.30;55.60;;;;;;4875777;29;20286;-62
2022/07/05 12:20:37;;;;;;;5.60;2.47;;;25.50;59.70;;;;;;4884459;29;20190;-62
2022/07/05 12:23:03;;;;;;;0.70;0.70;;;25.90;63.80;;;;;;4870633;29;20181;-61
2022/07/05 12:25:31;;;;;;;2.53;1.40;;;26.60;55.50;;;;;;4879478;29;20196;-60
2022/07/05 12:27:58;;;;;;;0.83;0.73;;;27.10;56.30;;;;;;4863671;29;20232;-60
2022/07/05 12:30:28;;;;;;;2.47;1.20;;;27.70;51.60;;;;;;4874137;29;20233;-61
2022/07/05 12:33:04;;;;;;;1.23;0.90;;;27.90;49.10;;;;;;4880912;29;20196;-61
2022/07/05 12:35:31;;;;;;;1.60;0.90;;;28.50;47.80;;;;;;4880190;29;20183;-61
2022/07/05 12:38:05;;;;;;;2.03;0.90;;;28.60;48.70;;;;;;4877697;29;20184;-61
2022/07/05 12:40:32;;;;;;;1.73;0.67;;;28.60;46.30;;;;;;4874824;29;20240;-60
2022/07/05 12:43:14;;;;;;;0.87;0.87;;;29.10;48.40;;;;;;4846317;29;20203;-61
2022/07/05 12:45:42;;;;;;;0.50;0.50;;;29.70;45.60;;;;;;4880698;29;20184;-61
2022/07/05 12:48:09;;;;;;;1.10;0.73;;;29.70;46.30;;;;;;4855511;29;20185;-61
2022/07/05 12:50:52;;;;;;;0.80;0.80;;;30.30;45.80;;;;;;4878879;29;20183;-61